Time;durP1;ratioP1;P1;durP2;ratioP2;P2;SDS_P1;SDS_P2;PMS_P1;PMS_P2;Temp;Humidity;BMP_temperature;BMP_pressure;BME280_temperature;BME280_humidity;BME280_pressure;Samples;Min_cycle;Max_cycle;Signal;HPM_P1;HPM_P2
2022/10/02 00:02:03;;;;;;;14.47;1.30;;;18.00;62.90;;;;;;5054333;28;20214;-67
2022/10/02 00:04:57;;;;;;;4.63;1.50;;;17.90;61.80;;;;;;5044187;28;20190;-66
2022/10/02 00:07:37;;;;;;;3.80;1.20;;;17.40;63.20;;;;;;5040407;28;20195;-68
2022/10/02 00:10:25;;;;;;;5.97;1.47;;;17.20;64.60;;;;;;5043630;28;20302;-68
2022/10/02 00:13:00;;;;;;;3.97;1.10;;;16.70;64.90;;;;;;5046777;28;20179;-68
2022/10/02 00:15:31;;;;;;;3.93;1.30;;;16.60;63.50;;;;;;5052268;28;20182;-68
2022/10/02 00:18:09;;;;;;;5.30;1.40;;;16.80;64.10;;;;;;5052959;28;20179;-68
2022/10/02 00:21:21;;;;;;;2.23;1.10;;;17.00;62.70;;;;;;5043302;28;20205;-67
2022/10/02 00:23:59;;;;;;;4.80;1.43;;;17.20;63.70;;;;;;5043798;28;20183;-66
2022/10/02 00:26:35;;;;;;;2.10;1.30;;;17.70;62.30;;;;;;5046689;28;20186;-67
2022/10/02 00:29:32;;;;;;;2.67;1.27;;;18.20;60.80;;;;;;5047769;28;20677;-67
2022/10/02 00:32:30;;;;;;;3.57;1.30;;;18.40;60.10;;;;;;5051589;28;20194;-66
2022/10/02 00:35:28;;;;;;;5.03;1.17;;;18.80;59.20;;;;;;5039166;28;20301;-69
2022/10/02 00:38:13;;;;;;;3.90;1.27;;;18.40;58.00;;;;;;5052082;28;20606;-69
2022/10/02 00:40:53;;;;;;;2.43;1.10;;;18.10;56.60;;;;;;5052971;28;20567;-67
2022/10/02 00:43:36;;;;;;;3.87;1.40;;;17.80;58.10;;;;;;5052544;28;20695;-68
2022/10/02 00:46:21;;;;;;;6.03;1.60;;;17.50;61.00;;;;;;5041589;28;20238;-68
2022/10/02 00:49:16;;;;;;;2.87;1.20;;;17.30;61.90;;;;;;5048931;28;20575;-69
2022/10/02 00:51:58;;;;;;;3.53;1.30;;;17.10;61.60;;;;;;5035288;28;20225;-68
2022/10/02 00:54:58;;;;;;;4.57;1.30;;;16.90;63.10;;;;;;5053610;28;20536;-68
2022/10/02 00:57:56;;;;;;;3.00;1.10;;;17.00;62.80;;;;;;5051936;28;20258;-67
2022/10/02 01:00:24;;;;;;;2.20;1.00;;;17.20;62.50;;;;;;5050165;28;20183;-67
2022/10/02 01:03:14;;;;;;;1.73;1.10;;;17.30;62.50;;;;;;5045001;28;20185;-68
2022/10/02 01:05:41;;;;;;;2.77;1.57;;;17.10;61.00;;;;;;5052360;28;20180;-68
2022/10/02 01:08:09;;;;;;;2.20;0.90;;;17.20;62.40;;;;;;5051277;28;20175;-68
2022/10/02 01:10:37;;;;;;;4.77;1.50;;;17.10;61.60;;;;;;5052960;28;20220;-67
2022/10/02 01:13:06;;;;;;;5.40;1.30;;;17.30;62.20;;;;;;5052330;28;20200;-68
2022/10/02 01:15:37;;;;;;;5.37;1.07;;;17.50;61.60;;;;;;5045927;28;20190;-67
2022/10/02 01:18:06;;;;;;;3.60;1.10;;;17.50;58.90;;;;;;5051834;28;20187;-67
2022/10/02 01:20:52;;;;;;;3.43;1.20;;;17.60;59.10;;;;;;5044414;28;20191;-70
2022/10/02 01:23:31;;;;;;;2.73;0.97;;;17.80;58.60;;;;;;5052316;28;20164;-67
2022/10/02 01:25:59;;;;;;;4.70;1.50;;;17.70;57.20;;;;;;5053066;28;20190;-66
2022/10/02 01:28:27;;;;;;;5.23;1.47;;;17.80;59.00;;;;;;5048124;28;20816;-67
2022/10/02 01:31:01;;;;;;;3.30;1.40;;;17.90;59.70;;;;;;5033049;28;20172;-67
2022/10/02 01:33:29;;;;;;;3.80;1.00;;;17.90;58.60;;;;;;5035709;28;20229;-68
2022/10/02 01:35:56;;;;;;;1.50;1.03;;;17.80;57.50;;;;;;5043650;28;20187;-67
2022/10/02 01:38:24;;;;;;;2.10;0.97;;;17.80;58.40;;;;;;5052163;28;20200;-67
2022/10/02 01:40:52;;;;;;;3.47;1.13;;;17.80;57.80;;;;;;5051760;28;20172;-68
2022/10/02 01:43:30;;;;;;;3.13;1.20;;;18.10;57.00;;;;;;5040563;28;20252;-70
2022/10/02 01:45:57;;;;;;;3.50;0.97;;;18.70;56.10;;;;;;5051289;28;20724;-67
2022/10/02 01:48:43;;;;;;;2.67;0.90;;;18.90;54.40;;;;;;5048021;28;20647;-65
2022/10/02 01:51:30;;;;;;;3.63;0.90;;;18.90;53.70;;;;;;5049806;28;20235;-66
2022/10/02 01:54:08;;;;;;;1.33;0.80;;;19.10;53.20;;;;;;5047026;28;20199;-67
2022/10/02 01:56:54;;;;;;;2.93;0.80;;;19.20;52.70;;;;;;5050057;28;20198;-67
2022/10/02 01:59:22;;;;;;;1.97;0.70;;;19.80;51.10;;;;;;5035481;28;20583;-66
2022/10/02 02:02:13;;;;;;;1.87;0.80;;;19.70;50.50;;;;;;5049711;28;20176;-68
2022/10/02 02:04:54;;;;;;;1.70;0.90;;;19.20;51.30;;;;;;5047315;28;20188;-69
2022/10/02 02:07:50;;;;;;;2.67;1.10;;;19.20;52.30;;;;;;5050157;28;20187;-68
2022/10/02 02:10:24;;;;;;;2.80;0.87;;;19.00;51.90;;;;;;5030842;28;20230;-69
2022/10/02 02:13:25;;;;;;;2.97;1.00;;;18.40;53.50;;;;;;5051669;28;20832;-70
2022/10/02 02:16:14;;;;;;;3.17;1.10;;;18.20;54.30;;;;;;5042858;28;20199;-67
2022/10/02 02:18:59;;;;;;;4.20;0.87;;;18.30;55.30;;;;;;5052013;28;20179;-69
2022/10/02 02:21:37;;;;;;;5.03;1.10;;;18.20;55.60;;;;;;5052432;28;20179;-68
2022/10/02 02:24:13;;;;;;;2.47;1.00;;;18.20;55.80;;;;;;5055227;28;20168;-67
2022/10/02 02:26:43;;;;;;;4.07;0.90;;;18.20;55.80;;;;;;5053982;28;20222;-69
2022/10/02 02:29:12;;;;;;;4.87;1.23;;;18.00;56.00;;;;;;5056233;28;20658;-67
2022/10/02 02:32:00;;;;;;;2.30;0.90;;;18.00;57.50;;;;;;5054605;28;20254;-67
2022/10/02 02:34:45;;;;;;;2.87;1.00;;;18.30;57.10;;;;;;5056114;28;20182;-67
2022/10/02 02:37:18;;;;;;;3.83;1.00;;;18.60;57.50;;;;;;5056260;28;20273;-68
2022/10/02 02:39:48;;;;;;;3.70;1.30;;;18.60;57.20;;;;;;5055497;28;20210;-67
2022/10/02 02:42:19;;;;;;;5.57;1.10;;;18.50;60.00;;;;;;5050356;28;20585;-69
2022/10/02 02:44:58;;;;;;;5.20;1.10;;;18.70;60.70;;;;;;5048316;28;20313;-68
2022/10/02 02:47:39;;;;;;;4.60;1.23;;;18.90;59.90;;;;;;5055506;28;20175;-68
2022/10/02 02:50:17;;;;;;;5.37;1.30;;;18.30;60.70;;;;;;5044067;28;20294;-68
2022/10/02 02:53:10;;;;;;;6.43;1.40;;;18.20;61.80;;;;;;5043325;28;20187;-68
2022/10/02 02:55:47;;;;;;;3.43;1.10;;;17.90;63.40;;;;;;5047447;28;20186;-68
2022/10/02 02:58:27;;;;;;;2.33;1.00;;;17.60;65.30;;;;;;5050819;28;20183;-68
2022/10/02 03:00:55;;;;;;;3.47;1.30;;;17.70;65.90;;;;;;5044486;28;20169;-67
2022/10/02 03:03:22;;;;;;;2.47;1.03;;;17.50;66.60;;;;;;5038510;28;20184;-67
2022/10/02 03:05:57;;;;;;;3.23;1.10;;;17.40;66.90;;;;;;5053917;28;20194;-69
2022/10/02 03:08:30;;;;;;;4.57;1.20;;;17.00;66.20;;;;;;5045444;28;20668;-67
2022/10/02 03:11:05;;;;;;;3.47;1.10;;;16.80;66.80;;;;;;5049710;28;20182;-69
2022/10/02 03:14:07;;;;;;;0.97;0.80;;;16.70;67.00;;;;;;5051346;28;20534;-68
2022/10/02 03:16:45;;;;;;;3.57;1.00;;;16.70;65.90;;;;;;5044585;28;20182;-69
2022/10/02 03:19:24;;;;;;;4.53;1.10;;;16.90;65.80;;;;;;5047173;28;20511;-67
2022/10/02 03:22:15;;;;;;;3.30;1.60;;;16.90;63.90;;;;;;5055394;28;20183;-68
2022/10/02 03:25:04;;;;;;;2.67;1.10;;;17.00;64.60;;;;;;5048109;28;20190;-69
2022/10/02 03:27:47;;;;;;;2.00;1.10;;;17.40;63.80;;;;;;5050476;28;20216;-68
2022/10/02 03:30:20;;;;;;;4.50;1.30;;;18.30;61.30;;;;;;5041540;28;20220;-68
2022/10/02 03:32:52;;;;;;;2.77;1.03;;;19.20;59.90;;;;;;5044039;28;20533;-66
2022/10/02 03:35:22;;;;;;;4.20;0.87;;;19.90;56.80;;;;;;5041279;28;20658;-66
2022/10/02 03:38:10;;;;;;;1.47;0.73;;;19.90;56.20;;;;;;5052927;28;20259;-67
2022/10/02 03:40:37;;;;;;;4.07;1.13;;;20.00;55.40;;;;;;5043423;28;20183;-68
2022/10/02 03:43:05;;;;;;;0.73;0.57;;;19.90;53.30;;;;;;5054503;28;20223;-69
2022/10/02 03:45:33;;;;;;;2.37;0.90;;;20.20;53.60;;;;;;5048888;28;20517;-67
2022/10/02 03:48:00;;;;;;;2.83;0.70;;;20.60;53.80;;;;;;5053196;28;20172;-68
2022/10/02 03:50:28;;;;;;;2.67;0.90;;;20.90;51.60;;;;;;5049823;28;20686;-67
2022/10/02 03:52:55;;;;;;;2.70;0.80;;;20.30;51.90;;;;;;5048676;28;20177;-67
2022/10/02 03:55:37;;;;;;;1.73;0.80;;;20.80;53.00;;;;;;5053721;28;20183;-67
2022/10/02 03:58:14;;;;;;;1.70;0.80;;;21.00;49.60;;;;;;5039064;28;20187;-67
2022/10/02 04:01:10;;;;;;;1.63;0.60;;;21.40;49.90;;;;;;5046469;28;20180;-66
2022/10/02 04:03:43;;;;;;;0.87;0.50;;;21.30;48.60;;;;;;5051604;28;20249;-67
2022/10/02 04:06:31;;;;;;;1.60;0.60;;;21.40;48.40;;;;;;5053453;28;20187;-67
2022/10/02 04:09:06;;;;;;;1.67;0.80;;;21.50;48.00;;;;;;5047033;28;20213;-67
2022/10/02 04:12:01;;;;;;;2.23;0.67;;;21.80;46.40;;;;;;5054148;28;20174;-67
2022/10/02 04:14:46;;;;;;;2.90;1.17;;;20.80;48.50;;;;;;5042999;28;20220;-66
2022/10/02 04:17:30;;;;;;;2.40;0.80;;;21.00;48.80;;;;;;5042291;28;20184;-67
2022/10/02 04:20:04;;;;;;;2.07;0.67;;;20.90;48.60;;;;;;5042502;28;20184;-67
2022/10/02 04:22:59;;;;;;;2.20;0.87;;;20.70;49.70;;;;;;5049331;28;20188;-68
2022/10/02 04:25:32;;;;;;;1.50;0.60;;;21.30;48.40;;;;;;5044857;28;20184;-68
2022/10/02 04:28:05;;;;;;;1.63;0.73;;;21.90;46.60;;;;;;5039961;28;20191;-70
2022/10/02 04:30:32;;;;;;;2.13;0.70;;;22.80;44.90;;;;;;5051775;28;20658;-68
2022/10/02 04:33:19;;;;;;;0.97;0.63;;;22.20;45.30;;;;;;5073495;28;20270;-67
2022/10/02 04:36:09;;;;;;;4.57;0.60;;;22.60;45.00;;;;;;5047218;28;20249;-66
2022/10/02 04:39:03;;;;;;;2.33;0.63;;;21.80;46.00;;;;;;5049835;28;20178;-66
2022/10/02 04:42:07;;;;;;;3.17;0.63;;;21.80;45.60;;;;;;5049826;28;20180;-67
2022/10/02 04:45:01;;;;;;;3.13;0.90;;;21.40;47.20;;;;;;5049250;28;20195;-66
2022/10/02 04:47:37;;;;;;;1.47;0.83;;;20.50;49.70;;;;;;5040921;28;20199;-67
2022/10/02 04:50:39;;;;;;;3.83;0.90;;;20.90;49.80;;;;;;5045752;28;20207;-66
2022/10/02 04:53:16;;;;;;;2.50;0.77;;;20.60;49.50;;;;;;5040951;28;20200;-67
2022/10/02 04:55:49;;;;;;;2.10;0.70;;;20.20;52.10;;;;;;5052241;28;20261;-66
2022/10/02 04:58:24;;;;;;;2.70;0.70;;;19.90;51.50;;;;;;5050320;28;20188;-67
2022/10/02 05:01:00;;;;;;;1.80;0.90;;;21.50;47.70;;;;;;5047360;28;20545;-68
2022/10/02 05:03:56;;;;;;;1.93;0.70;;;20.30;50.40;;;;;;5052815;28;20179;-68
2022/10/02 05:06:35;;;;;;;4.13;0.60;;;20.60;49.90;;;;;;5053433;28;20187;-67
2022/10/02 05:09:26;;;;;;;1.60;0.70;;;20.60;49.60;;;;;;5052316;28;20309;-66
2022/10/02 05:12:20;;;;;;;1.37;0.53;;;20.80;49.70;;;;;;5042628;28;20196;-66
2022/10/02 05:15:20;;;;;;;1.20;0.60;;;19.80;51.50;;;;;;5051122;28;20218;-68
2022/10/02 05:18:00;;;;;;;4.37;0.83;;;19.70;52.80;;;;;;5039706;28;20543;-66
2022/10/02 05:21:04;;;;;;;1.50;0.70;;;19.30;53.20;;;;;;5051706;28;20184;-67
2022/10/02 05:23:58;;;;;;;1.63;0.70;;;19.30;52.50;;;;;;5052856;28;20187;-66
2022/10/02 05:26:45;;;;;;;2.43;0.70;;;20.40;50.60;;;;;;5052757;28;20635;-67
2022/10/02 05:29:12;;;;;;;1.30;0.77;;;22.30;46.40;;;;;;5052984;28;20277;-70
2022/10/02 05:32:24;;;;;;;1.13;0.70;;;22.80;45.40;;;;;;5052299;28;20180;-67
2022/10/02 05:35:00;;;;;;;3.00;1.00;;;23.80;42.50;;;;;;5052069;28;20229;-67
2022/10/02 05:37:39;;;;;;;1.23;0.60;;;23.60;41.80;;;;;;5046547;28;20184;-67
2022/10/02 05:40:23;;;;;;;1.67;0.60;;;22.10;45.90;;;;;;5051553;28;20205;-67
2022/10/02 05:43:05;;;;;;;1.13;0.77;;;22.80;43.50;;;;;;5050077;28;20221;-66
2022/10/02 05:45:54;;;;;;;3.87;0.80;;;22.80;43.40;;;;;;5044430;28;20183;-67
2022/10/02 05:48:41;;;;;;;4.50;0.70;;;22.00;45.10;;;;;;5052312;28;20186;-67
2022/10/02 05:51:35;;;;;;;2.10;0.77;;;22.10;45.20;;;;;;5040445;28;20196;-67
2022/10/02 05:54:44;;;;;;;2.00;0.70;;;22.30;44.70;;;;;;5043485;28;20538;-67
2022/10/02 05:57:21;;;;;;;1.60;0.60;;;22.80;43.80;;;;;;5039045;28;20210;-67
2022/10/02 06:00:10;;;;;;;2.23;0.77;;;22.30;45.60;;;;;;5051245;28;20705;-67
2022/10/02 06:03:08;;;;;;;2.43;0.90;;;21.90;46.10;;;;;;5043720;28;20178;-66
2022/10/02 06:06:06;;;;;;;1.63;0.70;;;21.30;46.70;;;;;;5042755;28;20682;-67
2022/10/02 06:08:49;;;;;;;2.17;0.70;;;22.70;45.30;;;;;;5048263;28;20325;-66
2022/10/02 06:11:55;;;;;;;2.33;0.70;;;23.70;42.30;;;;;;5052270;28;20234;-68
2022/10/02 06:14:40;;;;;;;1.83;0.63;;;21.20;47.60;;;;;;5037865;28;20323;-65
2022/10/02 06:17:28;;;;;;;3.20;0.90;;;20.10;50.30;;;;;;5045111;28;20191;-66
2022/10/02 06:20:15;;;;;;;5.20;1.30;;;19.60;52.60;;;;;;5043212;28;20701;-67
2022/10/02 06:23:03;;;;;;;4.77;1.00;;;21.00;48.80;;;;;;5046688;28;20176;-67
2022/10/02 06:25:33;;;;;;;4.17;0.93;;;21.00;49.30;;;;;;5051287;28;20175;-67
2022/10/02 06:28:03;;;;;;;1.57;0.70;;;21.70;47.30;;;;;;5048931;28;20180;-66
2022/10/02 06:30:34;;;;;;;4.57;0.80;;;20.60;49.60;;;;;;5052082;28;20265;-67
2022/10/02 06:33:15;;;;;;;2.57;0.80;;;20.90;49.00;;;;;;5048268;28;20250;-67
2022/10/02 06:35:49;;;;;;;4.43;0.80;;;21.90;46.90;;;;;;5045665;28;20272;-66
2022/10/02 06:38:40;;;;;;;2.23;0.70;;;22.30;45.00;;;;;;5052338;28;20572;-67
2022/10/02 06:41:24;;;;;;;1.87;0.90;;;21.80;46.60;;;;;;5049749;28;20247;-67
2022/10/02 06:43:54;;;;;;;2.07;0.80;;;21.50;47.40;;;;;;5051535;28;20719;-69
2022/10/02 06:46:59;;;;;;;2.57;1.20;;;21.10;47.80;;;;;;5052117;28;20264;-66
2022/10/02 06:49:29;;;;;;;2.77;1.00;;;21.70;48.10;;;;;;5036052;28;20266;-67
2022/10/02 06:52:25;;;;;;;1.07;0.97;;;22.30;45.50;;;;;;5044066;28;20724;-68
2022/10/02 06:54:59;;;;;;;2.53;1.20;;;22.10;46.80;;;;;;5049626;28;20682;-70
2022/10/02 06:57:47;;;;;;;1.90;1.03;;;22.60;45.90;;;;;;5036032;28;20191;-67
2022/10/02 07:00:21;;;;;;;3.47;1.20;;;22.30;46.00;;;;;;5038405;28;20277;-66
2022/10/02 07:03:05;;;;;;;2.50;1.10;;;21.70;47.60;;;;;;5042589;28;20187;-67
2022/10/02 07:05:44;;;;;;;2.97;1.00;;;21.70;47.30;;;;;;5049628;28;20176;-67
2022/10/02 07:08:37;;;;;;;2.90;1.20;;;21.80;47.30;;;;;;5040964;28;20188;-66
2022/10/02 07:11:21;;;;;;;2.90;1.23;;;21.10;47.50;;;;;;5042350;28;20692;-68
2022/10/02 07:14:18;;;;;;;3.50;1.47;;;20.70;49.40;;;;;;5055209;28;20179;-67
2022/10/02 07:16:53;;;;;;;3.70;1.10;;;20.80;49.20;;;;;;5049011;28;20188;-66
2022/10/02 07:19:55;;;;;;;2.63;1.10;;;20.70;48.70;;;;;;5053711;28;20270;-69
2022/10/02 07:22:57;;;;;;;2.77;1.27;;;20.60;49.20;;;;;;5038641;28;20238;-66
2022/10/02 07:25:43;;;;;;;1.60;0.87;;;19.60;51.90;;;;;;5034031;28;20230;-66
2022/10/02 07:28:43;;;;;;;2.40;0.90;;;19.00;53.30;;;;;;5048151;28;20184;-66
2022/10/02 07:31:28;;;;;;;1.47;0.70;;;18.10;56.60;;;;;;5053350;28;20195;-67
2022/10/02 07:34:20;;;;;;;0.87;0.80;;;17.80;56.90;;;;;;5050080;28;20180;-66
2022/10/02 07:36:59;;;;;;;4.10;1.10;;;17.50;58.50;;;;;;5051117;28;20571;-66
2022/10/02 07:39:48;;;;;;;2.60;1.03;;;17.40;59.10;;;;;;5055201;28;20703;-66
2022/10/02 07:42:28;;;;;;;1.83;1.00;;;17.10;59.10;;;;;;5052431;28;20234;-66
2022/10/02 07:45:20;;;;;;;1.77;0.80;;;17.10;60.30;;;;;;5043848;28;20183;-66
2022/10/02 07:47:50;;;;;;;1.47;0.80;;;17.10;60.60;;;;;;5052467;28;20241;-69
2022/10/02 07:50:29;;;;;;;2.03;0.87;;;16.90;61.40;;;;;;5039656;28;20216;-67
2022/10/02 07:53:05;;;;;;;5.00;1.00;;;16.80;61.90;;;;;;5046151;28;20266;-66
2022/10/02 07:55:40;;;;;;;1.93;0.90;;;16.70;61.90;;;;;;5040918;28;20187;-66
2022/10/02 07:58:22;;;;;;;4.60;1.00;;;16.30;62.80;;;;;;5045576;28;20184;-67
2022/10/02 08:00:57;;;;;;;2.10;0.83;;;16.10;64.30;;;;;;5048289;28;20180;-66
2022/10/02 08:03:51;;;;;;;3.17;1.13;;;16.00;64.50;;;;;;5050249;28;20182;-67
2022/10/02 08:06:18;;;;;;;2.50;1.30;;;15.80;65.10;;;;;;5042289;28;20198;-66
2022/10/02 08:09:15;;;;;;;2.67;1.20;;;15.70;65.50;;;;;;5037223;28;20306;-66
2022/10/02 08:11:57;;;;;;;3.63;1.40;;;15.50;65.90;;;;;;5047886;28;20193;-66
2022/10/02 08:14:37;;;;;;;2.33;1.57;;;15.40;66.10;;;;;;5044755;28;20184;-67
2022/10/02 08:17:32;;;;;;;2.33;1.00;;;15.50;66.00;;;;;;5051806;28;20250;-66
2022/10/02 08:20:06;;;;;;;2.23;1.10;;;15.40;65.60;;;;;;5052960;28;20184;-66
2022/10/02 08:22:38;;;;;;;2.60;1.33;;;15.40;66.00;;;;;;5041926;28;20517;-66
2022/10/02 08:25:14;;;;;;;3.10;1.40;;;15.50;66.50;;;;;;5042532;28;20181;-68
2022/10/02 08:28:10;;;;;;;2.53;1.50;;;15.60;66.20;;;;;;5046361;28;20172;-66
2022/10/02 08:30:38;;;;;;;2.97;1.50;;;15.50;66.90;;;;;;5047045;28;20342;-66
2022/10/02 08:33:18;;;;;;;1.93;1.07;;;15.30;66.90;;;;;;5052221;28;20250;-66
2022/10/02 08:36:12;;;;;;;5.60;1.70;;;15.40;67.00;;;;;;5049875;28;20239;-67
2022/10/02 08:38:50;;;;;;;4.93;1.53;;;15.40;66.70;;;;;;5044107;28;20234;-66
2022/10/02 08:41:50;;;;;;;2.47;1.70;;;15.30;66.70;;;;;;5050546;28;20180;-66
2022/10/02 08:44:35;;;;;;;2.87;1.90;;;15.40;67.00;;;;;;5047895;28;20196;-66
2022/10/02 08:47:31;;;;;;;5.03;1.70;;;15.30;67.10;;;;;;5049124;28;20673;-67
2022/10/02 08:50:18;;;;;;;5.37;1.53;;;15.30;67.40;;;;;;5051807;28;20325;-66
2022/10/02 08:53:22;;;;;;;2.17;1.40;;;15.20;67.80;;;;;;5050429;28;20211;-66
2022/10/02 08:56:25;;;;;;;4.10;1.57;;;15.20;67.80;;;;;;5041885;28;20175;-67
2022/10/02 08:59:32;;;;;;;2.53;1.60;;;15.00;67.90;;;;;;5048468;28;20184;-66
2022/10/02 09:02:11;;;;;;;5.03;2.07;;;15.10;67.80;;;;;;5049698;28;20184;-67
2022/10/02 09:04:58;;;;;;;3.83;2.00;;;15.00;68.10;;;;;;5043109;28;20218;-66
2022/10/02 09:07:51;;;;;;;3.03;2.17;;;14.90;68.60;;;;;;5042529;28;20176;-66
2022/10/02 09:10:30;;;;;;;4.43;2.17;;;15.00;68.80;;;;;;5040201;28;20212;-66
2022/10/02 09:13:15;;;;;;;2.13;1.93;;;14.90;69.20;;;;;;5038323;28;20658;-66
2022/10/02 09:16:04;;;;;;;4.83;2.30;;;15.00;69.60;;;;;;5044628;28;20714;-66
2022/10/02 09:18:49;;;;;;;3.30;2.07;;;14.90;70.30;;;;;;5051415;28;20180;-66
2022/10/02 09:21:28;;;;;;;5.00;1.90;;;14.80;70.50;;;;;;5041350;28;20651;-66
2022/10/02 09:24:35;;;;;;;3.67;2.37;;;14.80;70.50;;;;;;5041613;28;20267;-66
2022/10/02 09:27:05;;;;;;;6.77;3.73;;;14.80;70.20;;;;;;5051525;28;20577;-66
2022/10/02 09:30:03;;;;;;;5.83;3.47;;;14.80;70.10;;;;;;5039225;28;20324;-66
2022/10/02 09:33:19;;;;;;;5.00;3.30;;;14.80;71.00;;;;;;5047461;28;20181;-66
2022/10/02 09:36:00;;;;;;;7.67;3.73;;;14.60;71.40;;;;;;5046279;28;20587;-66
2022/10/02 09:38:37;;;;;;;7.67;4.40;;;14.60;71.70;;;;;;5051990;28;20654;-66
2022/10/02 09:41:26;;;;;;;7.83;5.60;;;14.60;71.30;;;;;;5043137;28;20273;-67
2022/10/02 09:44:30;;;;;;;8.20;5.20;;;14.50;71.80;;;;;;5052783;28;20207;-68
2022/10/02 09:47:34;;;;;;;9.10;4.20;;;14.50;71.60;;;;;;5049317;28;20235;-66
2022/10/02 09:50:36;;;;;;;6.70;4.47;;;14.40;72.10;;;;;;5038959;28;20214;-67
2022/10/02 09:53:37;;;;;;;9.83;4.77;;;14.40;72.60;;;;;;5033898;28;20187;-69
2022/10/02 09:56:41;;;;;;;8.23;5.40;;;14.30;72.80;;;;;;5045368;28;20175;-67
2022/10/02 09:59:57;;;;;;;14.47;6.77;;;14.30;73.30;;;;;;5041667;28;20187;-66
2022/10/02 10:02:42;;;;;;;14.93;7.10;;;14.20;73.10;;;;;;5038981;28;20179;-66
2022/10/02 10:05:49;;;;;;;9.27;6.43;;;14.20;73.30;;;;;;5048414;28;20207;-67
2022/10/02 10:08:34;;;;;;;11.40;5.67;;;14.10;74.10;;;;;;5048913;28;20283;-66
2022/10/02 10:11:25;;;;;;;7.97;4.10;;;14.10;74.20;;;;;;5052037;28;20274;-66
2022/10/02 10:14:08;;;;;;;7.13;3.60;;;14.00;74.20;;;;;;5049526;28;20184;-67
2022/10/02 10:17:07;;;;;;;7.83;3.60;;;14.00;74.60;;;;;;5048589;28;20211;-67
2022/10/02 10:19:53;;;;;;;6.97;3.60;;;14.00;74.60;;;;;;5042221;28;20214;-67
2022/10/02 10:22:41;;;;;;;5.27;3.30;;;14.10;74.60;;;;;;5049246;28;20184;-67
2022/10/02 10:25:28;;;;;;;6.33;3.17;;;14.00;74.60;;;;;;5035140;28;20290;-66
2022/10/02 10:28:05;;;;;;;6.53;3.60;;;14.20;74.90;;;;;;5052197;28;20274;-66
2022/10/02 10:30:54;;;;;;;9.10;3.83;;;14.10;74.60;;;;;;5044220;28;20223;-67
2022/10/02 10:33:45;;;;;;;4.37;3.37;;;14.10;74.70;;;;;;5051863;28;20180;-66
2022/10/02 10:39:38;;;;;;;5.50;3.77;;;14.10;74.80;;;;;;5050435;28;20188;-66
2022/10/02 10:42:16;;;;;;;9.27;4.47;;;14.10;75.10;;;;;;5039004;28;20220;-66
2022/10/02 10:45:08;;;;;;;8.43;4.10;;;14.10;75.70;;;;;;5039424;28;20306;-67
2022/10/02 10:48:17;;;;;;;8.67;4.37;;;14.00;76.00;;;;;;5053505;28;20191;-67
2022/10/02 10:51:13;;;;;;;9.07;3.90;;;14.00;76.80;;;;;;5037054;28;20224;-67
2022/10/02 10:54:04;;;;;;;7.90;4.57;;;13.80;77.10;;;;;;5042421;28;20272;-66
2022/10/02 10:56:41;;;;;;;5.07;3.57;;;13.90;77.30;;;;;;5054495;28;20176;-66
2022/10/02 10:59:30;;;;;;;7.53;4.33;;;13.90;77.20;;;;;;5046215;28;20266;-66
2022/10/02 11:02:27;;;;;;;9.33;4.67;;;13.90;77.10;;;;;;5055018;28;20226;-66
2022/10/02 11:05:14;;;;;;;9.27;5.20;;;13.80;77.40;;;;;;5055356;28;20179;-66
2022/10/02 11:07:57;;;;;;;10.30;4.27;;;13.80;77.30;;;;;;5035714;28;20260;-67
2022/10/02 11:10:51;;;;;;;8.10;4.40;;;13.80;77.40;;;;;;5045169;28;20223;-66
2022/10/02 11:13:43;;;;;;;7.33;4.00;;;13.80;77.40;;;;;;5055591;28;20233;-66
2022/10/02 11:16:11;;;;;;;6.23;3.80;;;13.70;77.40;;;;;;5054120;28;20180;-67
2022/10/02 11:18:50;;;;;;;8.33;4.60;;;13.70;77.60;;;;;;5054921;28;20176;-66
2022/10/02 11:21:25;;;;;;;6.60;3.83;;;13.70;77.60;;;;;;5055561;28;20198;-67
2022/10/02 11:24:13;;;;;;;7.83;4.13;;;13.60;77.80;;;;;;5055643;28;20680;-67
2022/10/02 11:26:43;;;;;;;6.80;4.33;;;13.60;78.80;;;;;;5035113;28;20643;-67
2022/10/02 11:29:33;;;;;;;8.60;4.30;;;13.60;79.00;;;;;;5035236;28;20207;-67
2022/10/02 11:32:14;;;;;;;6.60;4.27;;;13.50;78.60;;;;;;5036228;28;20202;-67
2022/10/02 11:35:05;;;;;;;9.43;4.17;;;13.60;78.70;;;;;;5047265;28;20215;-67
2022/10/02 11:38:05;;;;;;;7.93;4.33;;;13.50;78.30;;;;;;5055233;28;20263;-66
2022/10/02 11:40:39;;;;;;;6.23;3.30;;;13.50;78.40;;;;;;5055135;28;20179;-67
2022/10/02 11:43:31;;;;;;;8.80;4.33;;;13.60;78.60;;;;;;5053434;28;20239;-68
2022/10/02 11:46:20;;;;;;;5.57;3.80;;;13.60;78.60;;;;;;5055210;28;20168;-66
2022/10/02 11:49:12;;;;;;;5.73;3.60;;;13.50;78.50;;;;;;5039350;28;20192;-68
2022/10/02 11:52:07;;;;;;;5.67;3.70;;;13.50;78.30;;;;;;5055036;28;20164;-66
2022/10/02 11:54:49;;;;;;;6.13;3.60;;;13.50;78.20;;;;;;5034894;28;20176;-67
2022/10/02 11:57:47;;;;;;;6.67;3.63;;;13.50;78.70;;;;;;5039674;28;20237;-67
2022/10/02 12:00:44;;;;;;;8.93;3.60;;;13.50;78.70;;;;;;5054764;28;20221;-68
2022/10/02 12:03:30;;;;;;;10.13;4.20;;;13.40;78.40;;;;;;5034636;28;20184;-66
2022/10/02 12:06:12;;;;;;;9.30;4.33;;;13.40;79.40;;;;;;5045638;28;20188;-66
2022/10/02 12:09:06;;;;;;;6.53;3.80;;;13.30;79.40;;;;;;5053999;28;20183;-66
2022/10/02 12:12:05;;;;;;;6.23;4.00;;;13.20;79.70;;;;;;5054607;28;20545;-66
2022/10/02 12:15:01;;;;;;;7.90;4.00;;;13.20;80.50;;;;;;5041950;28;20187;-66
2022/10/02 12:17:53;;;;;;;7.80;3.77;;;13.10;80.00;;;;;;5054694;28;20164;-67
2022/10/02 12:29:45;;;;;;;4.97;3.70;;;12.90;81.30;;;;;;5040642;28;20590;-66
2022/10/02 12:32:56;;;;;;;7.87;4.17;;;12.90;81.20;;;;;;5051194;28;20198;-66
2022/10/02 12:35:48;;;;;;;7.13;4.30;;;12.80;81.20;;;;;;5039368;28;20191;-67
2022/10/02 12:38:49;;;;;;;7.10;4.63;;;12.80;81.40;;;;;;5052015;28;20172;-66
2022/10/02 12:41:32;;;;;;;8.77;4.40;;;12.70;82.20;;;;;;5045006;28;20705;-66
2022/10/02 12:44:31;;;;;;;9.67;4.70;;;12.70;82.30;;;;;;5054041;28;20192;-68
2022/10/02 12:47:11;;;;;;;7.53;4.40;;;12.70;82.20;;;;;;5054826;28;20183;-67
2022/10/02 12:49:57;;;;;;;13.07;5.07;;;12.70;82.60;;;;;;5047324;28;20345;-68
2022/10/02 12:52:58;;;;;;;12.37;5.57;;;12.60;82.20;;;;;;5054265;28;20512;-65
2022/10/02 12:56:06;;;;;;;12.03;6.00;;;12.60;82.60;;;;;;5053218;28;20263;-65
2022/10/02 12:58:34;;;;;;;9.07;5.63;;;12.50;82.80;;;;;;5044156;28;20180;-66
2022/10/02 13:01:10;;;;;;;11.20;5.43;;;12.50;83.10;;;;;;5052715;28;20184;-66
2022/10/02 13:04:15;;;;;;;9.20;5.13;;;12.60;83.10;;;;;;5045880;28;20577;-66
2022/10/02 13:07:24;;;;;;;9.97;5.10;;;12.60;83.00;;;;;;5053153;28;20180;-66
2022/10/02 13:10:15;;;;;;;11.80;5.70;;;12.70;82.90;;;;;;5049786;28;20343;-66
2022/10/02 13:13:09;;;;;;;8.47;5.23;;;12.60;82.70;;;;;;5041763;28;20688;-66
2022/10/02 13:15:58;;;;;;;8.43;5.33;;;12.50;83.10;;;;;;5045990;28;20575;-66
2022/10/02 13:19:08;;;;;;;9.63;6.13;;;12.50;83.00;;;;;;5053142;28;20188;-66
2022/10/02 13:21:41;;;;;;;9.57;5.93;;;12.50;83.40;;;;;;5043066;28;20203;-67
2022/10/02 13:24:26;;;;;;;11.93;5.97;;;12.50;83.40;;;;;;5053661;28;20187;-67
2022/10/02 13:27:06;;;;;;;9.20;6.10;;;12.60;83.50;;;;;;5053012;28;20175;-66
2022/10/02 13:29:36;;;;;;;11.80;6.97;;;12.60;83.40;;;;;;5052122;28;20357;-67
2022/10/02 13:32:25;;;;;;;15.17;7.07;;;12.60;83.40;;;;;;5047778;28;20541;-67
2022/10/02 13:35:26;;;;;;;10.13;6.40;;;12.50;83.40;;;;;;5037004;28;20208;-67
2022/10/02 13:38:19;;;;;;;11.33;6.73;;;12.50;83.30;;;;;;5045654;28;20179;-67
2022/10/02 13:41:05;;;;;;;12.50;7.40;;;12.50;83.10;;;;;;5052704;28;20174;-66
2022/10/02 13:43:35;;;;;;;10.30;6.67;;;12.50;83.40;;;;;;5047082;28;20226;-66
2022/10/02 13:46:14;;;;;;;12.50;7.20;;;12.50;84.00;;;;;;5052780;28;20273;-67
2022/10/02 13:48:56;;;;;;;12.00;7.53;;;12.60;83.90;;;;;;5039533;28;20531;-67
2022/10/02 13:51:53;;;;;;;9.83;7.30;;;12.50;83.40;;;;;;5052972;28;20223;-67
2022/10/02 13:55:07;;;;;;;12.50;7.33;;;12.50;83.80;;;;;;5043647;28;20199;-66
2022/10/02 13:57:58;;;;;;;11.83;7.27;;;12.50;83.60;;;;;;5052080;28;20233;-68
2022/10/02 14:00:37;;;;;;;10.87;6.93;;;12.50;83.80;;;;;;5051293;28;20176;-67
2022/10/02 14:03:32;;;;;;;11.40;6.80;;;12.50;83.60;;;;;;5041339;28;20200;-66
2022/10/02 14:06:07;;;;;;;13.13;7.93;;;12.50;83.60;;;;;;5047098;28;20184;-67
2022/10/02 14:08:56;;;;;;;13.70;8.07;;;12.40;83.80;;;;;;5050814;28;20183;-67
2022/10/02 14:11:55;;;;;;;17.10;8.03;;;12.40;83.90;;;;;;5044044;28;20184;-68
2022/10/02 14:14:55;;;;;;;12.43;7.17;;;12.30;83.90;;;;;;5052488;28;20172;-67
2022/10/02 14:17:43;;;;;;;12.63;8.10;;;12.40;84.10;;;;;;5052221;28;20630;-67
2022/10/02 14:20:24;;;;;;;10.20;7.33;;;12.30;84.20;;;;;;5054695;28;20181;-66
2022/10/02 14:23:15;;;;;;;12.63;8.13;;;12.30;84.00;;;;;;5039052;28;20219;-68
2022/10/02 14:25:43;;;;;;;10.13;7.97;;;12.40;84.40;;;;;;5048132;28;20258;-67
2022/10/02 14:28:22;;;;;;;13.17;7.60;;;12.40;84.70;;;;;;5056468;28;20718;-67
2022/10/02 14:31:13;;;;;;;13.40;8.13;;;12.30;84.00;;;;;;5056125;28;20676;-66